createdAt,value
2022-08-24T00:02:28.638Z,27.61
2022-08-24T00:05:17.861Z,27.62
2022-08-24T00:08:06.391Z,27.63
2022-08-24T00:10:56.240Z,27.62
2022-08-24T00:13:45.369Z,27.64
2022-08-24T00:16:35.402Z,27.66
2022-08-24T00:19:24.167Z,27.66
2022-08-24T00:22:13.303Z,27.66
2022-08-24T00:25:01.894Z,27.67
2022-08-24T00:27:52.142Z,27.67
2022-08-24T00:30:40.756Z,27.69
2022-08-24T00:33:29.315Z,27.68
2022-08-24T00:36:21.991Z,27.69
2022-08-24T00:39:10.623Z,27.69
2022-08-24T00:41:59.206Z,27.68
2022-08-24T00:44:49.089Z,27.69
2022-08-24T00:47:47.776Z,27.71
2022-08-24T00:50:39.535Z,27.67
2022-08-24T00:53:32.400Z,27.68
2022-08-24T00:56:23.693Z,27.68
2022-08-24T00:59:14.666Z,27.68
2022-08-24T01:02:15.851Z,27.69
2022-08-24T01:05:08.333Z,27.70
2022-08-24T01:07:56.902Z,27.71
2022-08-24T01:10:50.729Z,27.68
2022-08-24T01:13:39.489Z,27.69
2022-08-24T01:16:45.369Z,27.69
2022-08-24T01:19:38.907Z,27.70
2022-08-24T01:22:54.560Z,27.70
2022-08-24T01:25:45.568Z,27.71
2022-08-24T01:28:36.973Z,27.73
2022-08-24T01:31:26.355Z,27.71
2022-08-24T01:34:15.051Z,27.72
2022-08-24T01:37:04.640Z,27.71
2022-08-24T01:39:55.557Z,27.72
2022-08-24T01:42:50.959Z,27.71
2022-08-24T01:45:39.623Z,27.69
2022-08-24T01:48:28.216Z,27.71
2022-08-24T01:51:16.806Z,27.71
2022-08-24T01:54:06.927Z,27.70
2022-08-24T01:56:55.582Z,27.72
2022-08-24T01:59:45.924Z,27.72
2022-08-24T02:02:34.555Z,27.72
2022-08-24T02:05:26.139Z,27.72
2022-08-24T02:08:14.787Z,27.72
2022-08-24T02:11:04.133Z,27.71
2022-08-24T02:13:52.737Z,27.71
2022-08-24T02:16:43.182Z,27.71
2022-08-24T02:19:31.859Z,27.72
2022-08-24T02:22:20.425Z,27.72
2022-08-24T02:25:09.757Z,27.72
2022-08-24T02:28:02.899Z,27.71
2022-08-24T02:30:51.712Z,27.72
2022-08-24T02:33:42.809Z,27.73
2022-08-24T02:36:31.505Z,27.72
2022-08-24T02:39:20.038Z,27.72
2022-08-24T02:42:08.819Z,27.73
2022-08-24T02:44:57.349Z,27.73
2022-08-24T02:47:45.988Z,27.73
2022-08-24T02:50:40.195Z,27.73
2022-08-24T02:53:28.751Z,27.73
2022-08-24T02:56:18.135Z,27.77
2022-08-24T02:59:06.662Z,27.74
2022-08-24T03:01:55.282Z,27.75
2022-08-24T03:04:43.891Z,27.75
2022-08-24T03:07:39.807Z,27.74
2022-08-24T03:10:28.297Z,27.73
2022-08-24T03:13:17.332Z,27.74
2022-08-24T03:16:06.334Z,27.74
2022-08-24T03:18:54.950Z,27.75
2022-08-24T03:21:43.620Z,27.73
2022-08-24T03:24:33.920Z,27.72
2022-08-24T03:27:22.489Z,27.71
2022-08-24T03:30:13.868Z,27.72
2022-08-24T03:33:02.503Z,27.70
2022-08-24T03:35:51.197Z,27.70
2022-08-24T03:38:39.689Z,27.70
2022-08-24T03:41:29.772Z,27.71
2022-08-24T03:44:23.313Z,27.71
2022-08-24T03:47:12.119Z,27.73
2022-08-24T03:50:00.668Z,27.71
2022-08-24T03:52:49.538Z,27.72
2022-08-24T03:55:38.032Z,27.71
2022-08-24T03:58:28.299Z,27.70
2022-08-24T04:01:18.040Z,27.71
2022-08-24T04:04:07.391Z,27.72
2022-08-24T04:06:55.867Z,27.71
2022-08-24T04:09:44.483Z,27.71
2022-08-24T04:12:32.961Z,27.71
2022-08-24T04:15:24.507Z,27.72
2022-08-24T04:18:13.201Z,27.72
2022-08-24T04:21:04.675Z,27.73
2022-08-24T04:23:53.614Z,27.72
2022-08-24T04:26:45.152Z,27.72
2022-08-24T04:29:34.426Z,27.71
2022-08-24T04:32:24.507Z,27.70
2022-08-24T04:35:13.073Z,27.70
2022-08-24T04:38:01.569Z,27.70
2022-08-24T04:40:50.162Z,27.70
2022-08-24T04:43:39.207Z,27.70
2022-08-24T04:46:29.441Z,27.73
2022-08-24T04:49:19.391Z,27.73
2022-08-24T04:52:08.174Z,27.72
2022-08-24T04:54:56.765Z,27.72
2022-08-24T04:57:45.461Z,27.74
2022-08-24T05:00:36.852Z,27.74
2022-08-24T05:03:25.439Z,27.75
2022-08-24T05:06:16.497Z,27.72
2022-08-24T05:09:06.786Z,27.72
2022-08-24T05:11:55.642Z,27.72
2022-08-24T05:14:44.143Z,27.73
2022-08-24T05:17:33.816Z,27.75
2022-08-24T05:20:22.465Z,27.77
2022-08-24T05:23:12.849Z,27.80
2022-08-24T05:26:06.787Z,27.86
2022-08-24T05:28:56.434Z,27.81
2022-08-24T05:31:46.363Z,27.80
2022-08-24T05:34:35.337Z,27.84
2022-08-24T05:37:24.624Z,27.92
2022-08-24T05:40:17.836Z,27.86
2022-08-24T05:43:06.518Z,27.88
2022-08-24T05:45:55.287Z,27.90
2022-08-24T05:48:43.850Z,27.92
2022-08-24T05:51:42.674Z,27.96
2022-08-24T05:54:31.286Z,27.93
2022-08-24T05:57:21.392Z,27.98
2022-08-24T06:00:11.904Z,27.99
2022-08-24T06:03:00.569Z,28.00
2022-08-24T06:05:49.313Z,27.98
2022-08-24T06:08:41.535Z,27.98
2022-08-24T06:11:32.637Z,27.98
2022-08-24T06:14:26.811Z,28.02
2022-08-24T06:17:15.791Z,28.01
2022-08-24T06:20:05.350Z,27.95
2022-08-24T06:22:53.896Z,27.95
2022-08-24T06:26:00.028Z,27.98
2022-08-24T06:28:48.659Z,27.95
2022-08-24T06:31:41.825Z,27.86
2022-08-24T06:34:30.678Z,27.85
2022-08-24T06:37:19.470Z,27.80
2022-08-24T06:40:10.295Z,27.72
2022-08-24T06:43:04.323Z,27.69
2022-08-24T06:45:53.312Z,27.71
2022-08-24T06:48:43.294Z,27.62
2022-08-24T06:51:32.442Z,27.57
2022-08-24T06:54:21.816Z,27.54
2022-08-24T06:57:10.412Z,27.47
2022-08-24T06:59:59.098Z,27.43
2022-08-24T07:02:47.681Z,27.41
2022-08-24T07:05:37.867Z,27.42
2022-08-24T07:08:28.304Z,27.43
2022-08-24T07:11:18.694Z,27.41
2022-08-24T07:14:07.798Z,27.50
2022-08-24T07:16:56.469Z,27.49
2022-08-24T07:19:45.956Z,27.56
2022-08-24T07:22:35.873Z,27.62
2022-08-24T07:25:24.512Z,27.50
2022-08-24T07:28:14.582Z,27.45
2022-08-24T07:31:04.645Z,27.46
2022-08-24T07:33:53.264Z,27.44
2022-08-24T07:36:44.466Z,27.48
2022-08-24T07:39:34.616Z,27.50
2022-08-24T07:42:31.237Z,27.53
2022-08-24T07:45:20.783Z,27.54
2022-08-24T07:48:11.683Z,27.54
2022-08-24T07:51:08.561Z,27.59
2022-08-24T07:53:57.103Z,27.61
2022-08-24T07:56:47.243Z,27.64
2022-08-24T07:59:36.358Z,27.67
2022-08-24T08:02:29.541Z,27.70
2022-08-24T08:05:24.977Z,27.75
2022-08-24T08:08:13.658Z,27.78
2022-08-24T08:11:02.666Z,27.81
2022-08-24T08:13:54.209Z,27.84
2022-08-24T08:16:42.835Z,27.85
2022-08-24T08:19:32.419Z,27.89
2022-08-24T08:22:38.723Z,27.90
2022-08-24T08:25:27.247Z,27.91
2022-08-24T08:28:25.300Z,27.90
2022-08-24T08:31:16.153Z,27.90
2022-08-24T08:34:05.162Z,27.93
2022-08-24T08:36:54.202Z,27.94
2022-08-24T08:39:43.119Z,27.96
2022-08-24T08:42:58.066Z,27.99
2022-08-24T08:46:06.481Z,28.00
2022-08-24T08:49:24.602Z,28.03
2022-08-24T08:52:40.025Z,28.04
2022-08-24T08:55:32.817Z,28.06
2022-08-24T08:58:39.359Z,28.08
2022-08-24T09:01:33.381Z,28.14
2022-08-24T09:04:39.700Z,28.15
2022-08-24T09:07:37.471Z,28.14
2022-08-24T09:10:44.076Z,28.18
2022-08-24T09:13:46.702Z,28.19
2022-08-24T09:16:51.893Z,28.19
2022-08-24T09:19:52.170Z,28.21
2022-08-24T09:22:43.483Z,28.24
2022-08-24T09:25:39.939Z,28.25
2022-08-24T09:28:37.715Z,28.33
2022-08-24T09:31:51.874Z,28.29
2022-08-24T09:34:51.392Z,28.20
2022-08-24T09:37:56.689Z,28.32
2022-08-24T09:41:03.185Z,28.25
2022-08-24T09:44:14.582Z,28.29
2022-08-24T09:47:24.263Z,28.29
2022-08-24T09:50:28.401Z,28.30
2022-08-24T09:53:33.918Z,28.51
2022-08-24T09:56:40.337Z,28.41
2022-08-24T09:59:48.899Z,28.35
2022-08-24T10:02:57.159Z,28.39
2022-08-24T10:06:05.496Z,28.58
2022-08-24T10:09:11.681Z,28.52
2022-08-24T10:12:06.080Z,28.35
2022-08-24T10:14:56.506Z,28.33
2022-08-24T10:17:56.814Z,28.32
2022-08-24T10:20:58.157Z,28.53
2022-08-24T10:24:07.100Z,28.85
2022-08-24T10:27:08.492Z,28.99
2022-08-24T10:30:11.830Z,28.89
2022-08-24T10:33:10.885Z,28.90
2022-08-24T10:36:33.005Z,28.83
2022-08-24T10:39:42.844Z,28.93
2022-08-24T10:43:03.792Z,28.86
2022-08-24T10:46:10.209Z,28.90
2022-08-24T10:49:43.906Z,28.96
2022-08-24T10:53:09.906Z,29.00
2022-08-24T10:56:08.376Z,28.81
2022-08-24T10:59:04.846Z,28.91
2022-08-24T11:02:12.326Z,28.79
2022-08-24T11:05:03.622Z,28.94
2022-08-24T11:07:59.470Z,29.14
2022-08-24T11:10:49.209Z,29.25
2022-08-24T11:13:51.388Z,29.08
2022-08-24T11:16:42.782Z,28.94
2022-08-24T11:19:33.181Z,29.29
2022-08-24T11:22:41.022Z,29.17
2022-08-24T11:25:32.144Z,29.55
2022-08-24T11:28:27.294Z,29.42
2022-08-24T11:31:23.578Z,29.52
2022-08-24T11:34:17.677Z,29.55
2022-08-24T11:37:15.668Z,29.22
2022-08-24T11:40:05.920Z,29.17
2022-08-24T11:43:08.424Z,29.08
2022-08-24T11:46:05.733Z,28.91
2022-08-24T11:49:04.838Z,28.82
2022-08-24T11:51:56.890Z,29.20
2022-08-24T11:54:48.027Z,29.40
2022-08-24T11:57:39.330Z,29.48
2022-08-24T12:00:44.968Z,29.17
2022-08-24T12:03:49.371Z,28.94
2022-08-24T12:06:49.362Z,29.20
2022-08-24T12:09:48.830Z,29.60
2022-08-24T12:12:40.944Z,29.35
2022-08-24T12:15:38.970Z,29.12
2022-08-24T12:18:32.198Z,29.17
2022-08-24T12:21:23.189Z,29.26
2022-08-24T12:24:16.538Z,29.11
2022-08-24T12:27:10.762Z,28.95
2022-08-24T12:30:05.250Z,28.93
2022-08-24T12:32:57.891Z,29.11
2022-08-24T12:35:49.472Z,29.39
2022-08-24T12:38:41.024Z,29.23
2022-08-24T12:41:33.650Z,29.13
2022-08-24T12:44:25.468Z,28.97
2022-08-24T12:47:19.365Z,28.92
2022-08-24T12:50:13.141Z,29.22
2022-08-24T12:53:30.294Z,29.11
2022-08-24T12:56:44.359Z,29.15
2022-08-24T12:59:36.920Z,29.03
2022-08-24T13:02:32.866Z,29.00
2022-08-24T13:05:22.205Z,29.20
2022-08-24T13:08:13.280Z,29.43
2022-08-24T13:11:06.343Z,29.35
2022-08-24T13:14:18.630Z,29.14
2022-08-24T13:17:13.081Z,28.97
2022-08-24T13:20:20.746Z,28.93
2022-08-24T13:23:18.802Z,28.88
2022-08-24T13:26:26.566Z,29.01
2022-08-24T13:29:18.355Z,29.00
2022-08-24T13:32:07.537Z,28.94
2022-08-24T13:34:58.425Z,28.87
2022-08-24T13:38:30.530Z,28.84
2022-08-24T13:41:46.805Z,28.88
2022-08-24T13:44:53.978Z,28.98
2022-08-24T13:47:59.903Z,28.92
2022-08-24T13:51:16.879Z,28.88
2022-08-24T13:54:20.223Z,28.92
2022-08-24T13:57:26.492Z,28.92
2022-08-24T14:00:39.316Z,28.94
2022-08-24T14:03:46.168Z,29.14
2022-08-24T14:06:39.212Z,29.07
2022-08-24T14:09:38.156Z,28.95
2022-08-24T14:12:54.078Z,28.94
2022-08-24T14:16:11.274Z,28.96
2022-08-24T14:19:06.426Z,28.98
2022-08-24T14:22:00.799Z,29.04
2022-08-24T14:24:58.570Z,29.41
2022-08-24T14:27:50.947Z,29.29
2022-08-24T14:30:43.656Z,29.16
2022-08-24T14:33:35.234Z,29.05
2022-08-24T14:36:45.986Z,29.18
2022-08-24T14:39:38.519Z,29.08
2022-08-24T14:42:37.220Z,29.07
2022-08-24T14:45:50.272Z,29.14
2022-08-24T14:48:50.313Z,29.13
2022-08-24T14:52:05.848Z,29.42
2022-08-24T14:55:05.570Z,29.30
2022-08-24T14:58:08.187Z,29.10
2022-08-24T15:01:08.266Z,29.07
2022-08-24T15:04:08.503Z,29.05
2022-08-24T15:06:58.900Z,29.00
2022-08-24T15:09:48.109Z,29.01
2022-08-24T15:12:39.441Z,28.99
2022-08-24T15:15:34.064Z,28.99
2022-08-24T15:18:28.422Z,28.97
2022-08-24T15:21:28.054Z,28.99
2022-08-24T15:27:19.755Z,28.98
2022-08-24T15:30:18.552Z,28.98
2022-08-24T15:33:11.097Z,29.08
2022-08-24T15:36:09.713Z,29.02
2022-08-24T15:38:59.703Z,29.09
2022-08-24T15:41:48.258Z,29.08
2022-08-24T15:44:37.882Z,29.11
2022-08-24T15:47:30.252Z,29.19
2022-08-24T15:50:23.731Z,29.59
2022-08-24T15:53:31.239Z,29.60
2022-08-24T15:56:35.936Z,29.64
2022-08-24T15:59:29.467Z,29.62
2022-08-24T16:02:29.244Z,29.51
2022-08-24T16:05:21.825Z,29.38
2022-08-24T16:08:13.357Z,29.42
2022-08-24T16:11:10.848Z,29.46
2022-08-24T16:14:01.088Z,29.50
2022-08-24T16:16:54.145Z,29.52
2022-08-24T16:19:42.715Z,29.54
2022-08-24T16:22:34.835Z,29.62
2022-08-24T16:25:27.269Z,29.61
2022-08-24T16:28:35.761Z,29.51
2022-08-24T16:31:52.828Z,29.50
2022-08-24T16:34:42.998Z,29.46
2022-08-24T16:37:32.272Z,29.41
2022-08-24T16:40:20.954Z,29.38
2022-08-24T16:43:09.563Z,29.37
2022-08-24T16:45:58.285Z,29.41
2022-08-24T16:48:48.157Z,29.39
2022-08-24T16:51:36.676Z,29.38
2022-08-24T16:54:32.241Z,29.48
2022-08-24T16:57:24.346Z,29.45
2022-08-24T17:00:17.331Z,29.65
2022-08-24T17:03:06.618Z,29.58
2022-08-24T17:05:56.690Z,29.67
2022-08-24T17:08:45.220Z,29.77
2022-08-24T17:11:34.465Z,29.80
2022-08-24T17:14:22.971Z,29.72
2022-08-24T17:17:13.728Z,29.62
2022-08-24T17:20:02.280Z,29.56
2022-08-24T17:22:52.148Z,29.61
2022-08-24T17:25:41.851Z,29.49
2022-08-24T17:28:30.716Z,29.45
2022-08-24T17:31:19.248Z,29.43
2022-08-24T17:34:08.704Z,29.36
2022-08-24T17:36:57.869Z,29.34
2022-08-24T17:39:48.505Z,29.28
2022-08-24T17:42:52.396Z,29.28
2022-08-24T17:45:42.410Z,29.25
2022-08-24T17:48:34.069Z,29.25
2022-08-24T17:51:22.678Z,29.20
2022-08-24T17:54:11.229Z,29.19
2022-08-24T17:57:01.276Z,29.18
2022-08-24T17:59:50.804Z,29.14
2022-08-24T18:02:39.539Z,29.12
2022-08-24T18:05:29.453Z,29.12
2022-08-24T18:08:17.959Z,29.13
2022-08-24T18:11:06.516Z,29.09
2022-08-24T18:13:56.378Z,29.07
2022-08-24T18:16:54.038Z,29.04
2022-08-24T18:19:42.854Z,29.04
2022-08-24T18:22:31.322Z,29.03
2022-08-24T18:25:22.907Z,28.99
2022-08-24T18:28:11.523Z,28.96
2022-08-24T18:31:01.403Z,28.95
2022-08-24T18:33:49.942Z,28.96
2022-08-24T18:36:38.635Z,28.94
2022-08-24T18:39:27.485Z,28.91
2022-08-24T18:42:16.135Z,28.89
2022-08-24T18:45:05.818Z,28.89
2022-08-24T18:47:55.641Z,28.89
2022-08-24T18:50:44.165Z,28.96
2022-08-24T18:53:35.472Z,28.93
2022-08-24T18:56:24.752Z,28.93
2022-08-24T18:59:15.126Z,28.89
2022-08-24T19:02:31.208Z,28.89
2022-08-24T19:05:23.947Z,28.86
2022-08-24T19:08:12.519Z,28.84
2022-08-24T19:11:01.065Z,28.84
2022-08-24T19:13:49.556Z,28.82
2022-08-24T19:16:38.247Z,28.81
2022-08-24T19:19:26.852Z,28.81
2022-08-24T19:22:17.302Z,28.81
2022-08-24T19:25:06.897Z,28.82
2022-08-24T19:27:56.009Z,28.82
2022-08-24T19:30:46.686Z,28.82
2022-08-24T19:33:36.621Z,28.84
2022-08-24T19:36:25.296Z,28.83
2022-08-24T19:39:15.234Z,28.80
2022-08-24T19:42:04.985Z,28.79
2022-08-24T19:45:11.493Z,28.77
2022-08-24T19:48:00.210Z,28.77
2022-08-24T19:50:48.664Z,28.75
2022-08-24T19:53:38.372Z,28.72
2022-08-24T19:56:28.251Z,28.71
2022-08-24T19:59:21.860Z,28.67
2022-08-24T20:02:10.413Z,28.65
2022-08-24T20:04:59.266Z,28.65
2022-08-24T20:07:48.473Z,28.62
2022-08-24T20:10:37.566Z,28.61
2022-08-24T20:13:27.490Z,28.58
2022-08-24T20:16:18.203Z,28.60
2022-08-24T20:19:07.227Z,28.60
2022-08-24T20:21:55.848Z,28.58
2022-08-24T20:24:44.469Z,28.54
2022-08-24T20:27:33.346Z,28.52
2022-08-24T20:30:23.431Z,28.48
2022-08-24T20:33:16.304Z,28.46
2022-08-24T20:36:06.020Z,28.47
2022-08-24T20:38:55.311Z,28.49
2022-08-24T20:41:45.394Z,28.47
2022-08-24T20:44:33.979Z,28.56
2022-08-24T20:47:24.095Z,28.53
2022-08-24T20:50:12.702Z,28.54
2022-08-24T20:53:01.240Z,28.53
2022-08-24T20:55:50.045Z,28.50
2022-08-24T20:58:40.221Z,28.50
2022-08-24T21:01:28.802Z,28.51
2022-08-24T21:04:18.654Z,28.47
2022-08-24T21:07:07.265Z,28.51
2022-08-24T21:09:57.352Z,28.53
2022-08-24T21:12:46.232Z,28.59
2022-08-24T21:15:34.985Z,28.59
2022-08-24T21:18:23.517Z,28.60
2022-08-24T21:21:15.524Z,28.63
2022-08-24T21:24:04.746Z,28.64
2022-08-24T21:26:53.622Z,28.73
2022-08-24T21:29:42.336Z,28.83
2022-08-24T21:32:48.462Z,28.90
2022-08-24T21:35:38.707Z,28.98
2022-08-24T21:38:28.658Z,29.05
2022-08-24T21:41:17.221Z,29.11
2022-08-24T21:44:05.926Z,29.13
2022-08-24T21:46:54.681Z,29.30
2022-08-24T21:49:43.306Z,29.16
2022-08-24T21:52:31.747Z,29.04
2022-08-24T21:55:21.739Z,28.96
2022-08-24T21:58:10.871Z,28.93
2022-08-24T22:00:59.775Z,28.89
2022-08-24T22:03:48.825Z,28.85
2022-08-24T22:06:37.270Z,28.81
2022-08-24T22:09:27.075Z,28.81
2022-08-24T22:12:16.908Z,28.81
2022-08-24T22:15:06.507Z,28.77
2022-08-24T22:17:55.308Z,28.77
2022-08-24T22:20:43.926Z,28.75
2022-08-24T22:23:32.463Z,28.74
2022-08-24T22:26:20.934Z,28.74
2022-08-24T22:29:11.880Z,28.75
2022-08-24T22:32:00.457Z,28.73
2022-08-24T22:34:48.978Z,28.73
2022-08-24T22:37:37.573Z,28.71
2022-08-24T22:40:27.180Z,28.71
2022-08-24T22:43:15.976Z,28.71
2022-08-24T22:46:05.908Z,28.73
2022-08-24T22:48:54.532Z,28.71
2022-08-24T22:51:43.061Z,28.73
2022-08-24T22:54:32.381Z,28.74
2022-08-24T22:57:20.797Z,28.74
2022-08-24T23:00:10.722Z,28.75
2022-08-24T23:03:05.153Z,28.73
2022-08-24T23:05:53.750Z,28.69
2022-08-24T23:08:42.341Z,28.67
2022-08-24T23:11:32.286Z,28.65
2022-08-24T23:14:21.890Z,28.64
2022-08-24T23:17:10.545Z,28.64
2022-08-24T23:20:06.211Z,28.62
2022-08-24T23:22:56.754Z,28.62
2022-08-24T23:25:45.271Z,28.62
2022-08-24T23:28:33.835Z,28.64
2022-08-24T23:31:22.947Z,28.62
2022-08-24T23:34:12.122Z,28.62
2022-08-24T23:37:02.670Z,28.58
2022-08-24T23:39:51.426Z,28.60
2022-08-24T23:42:39.973Z,28.61
2022-08-24T23:45:30.460Z,28.62
2022-08-24T23:48:19.176Z,28.61
2022-08-24T23:51:09.622Z,28.60
2022-08-24T23:53:59.629Z,28.62
2022-08-24T23:56:49.951Z,28.63
2022-08-24T23:59:38.745Z,28.62
